Time;durP1;ratioP1;P1;durP2;ratioP2;P2;SDS_P1;SDS_P2;PMS_P1;PMS_P2;Temp;Humidity;BMP_temperature;BMP_pressure;BME280_temperature;BME280_humidity;BME280_pressure;Samples;Min_cycle;Max_cycle;Signal;HPM_P1;HPM_P2
2022/01/09 00:00:35;;;;;;;56.60;29.83;;;;;;;-0.63;100.00;100272.22;5112243;28;20553;-73
2022/01/09 00:03:04;;;;;;;56.95;30.80;;;;;;;-0.65;100.00;100270.81;5093741;28;20396;-73
2022/01/09 00:05:33;;;;;;;48.78;28.25;;;;;;;-0.87;100.00;100271.91;5111638;28;20050;-73
2022/01/09 00:08:01;;;;;;;51.90;29.05;;;;;;;-0.89;100.00;100257.88;5110934;28;20101;-73
2022/01/09 00:10:31;;;;;;;54.30;28.02;;;;;;;-0.85;100.00;100251.03;5111879;28;20066;-73
2022/01/09 00:12:59;;;;;;;49.60;26.77;;;;;;;-0.88;100.00;100253.31;5111683;28;20489;-73
2022/01/09 00:15:27;;;;;;;50.90;25.38;;;;;;;-0.94;100.00;100249.59;5111387;28;20054;-73
2022/01/09 00:17:54;;;;;;;48.83;24.95;;;;;;;-1.04;100.00;100241.19;5111472;28;20044;-73
2022/01/09 00:20:22;;;;;;;44.63;25.70;;;;;;;-1.12;100.00;100235.00;5111301;28;20378;-73
2022/01/09 00:22:52;;;;;;;50.72;25.27;;;;;;;-1.17;100.00;100224.03;5093494;28;20046;-73
2022/01/09 00:25:22;;;;;;;44.22;25.50;;;;;;;-1.14;100.00;100207.53;5111208;28;20044;-73
2022/01/09 00:27:51;;;;;;;54.00;25.05;;;;;;;-1.16;100.00;100209.59;5112168;28;20390;-73
2022/01/09 00:30:22;;;;;;;45.47;24.42;;;;;;;-0.98;100.00;100194.69;5110533;28;20052;-73
2022/01/09 00:32:52;;;;;;;44.47;23.63;;;;;;;-0.74;100.00;100190.41;5112201;28;20505;-73
2022/01/09 00:35:21;;;;;;;48.80;25.38;;;;;;;-0.93;100.00;100184.09;5110733;28;20063;-73
2022/01/09 00:37:49;;;;;;;44.70;23.20;;;;;;;-1.02;100.00;100171.94;5111231;28;20047;-73
2022/01/09 00:40:17;;;;;;;43.33;23.65;;;;;;;-1.10;100.00;100170.31;5111322;28;20044;-73
2022/01/09 00:42:45;;;;;;;43.50;23.58;;;;;;;-1.10;100.00;100171.16;5110572;28;20047;-73
2022/01/09 00:45:14;;;;;;;38.05;23.30;;;;;;;-1.11;100.00;100174.84;5111622;28;20398;-73
2022/01/09 00:47:42;;;;;;;46.28;23.85;;;;;;;-1.15;100.00;100168.28;5111202;28;20409;-73
2022/01/09 00:50:12;;;;;;;38.03;22.85;;;;;;;-1.13;100.00;100160.84;5110833;28;20047;-73
2022/01/09 00:52:40;;;;;;;42.75;22.80;;;;;;;-1.06;100.00;100163.50;5110454;28;20522;-73
2022/01/09 00:55:09;;;;;;;39.97;23.33;;;;;;;-0.72;100.00;100149.91;5111273;28;20052;-73
2022/01/09 00:57:37;;;;;;;45.53;25.65;;;;;;;-0.48;100.00;100158.25;5111508;28;20047;-73
2022/01/09 01:00:07;;;;;;;41.40;23.15;;;;;;;-0.55;100.00;100169.03;5111732;28;20504;-73
2022/01/09 01:02:35;;;;;;;42.90;22.90;;;;;;;-0.70;100.00;100180.91;5111448;28;20398;-73
2022/01/09 01:05:05;;;;;;;40.33;23.13;;;;;;;-0.80;100.00;100169.78;5111561;28;20040;-73
2022/01/09 01:07:33;;;;;;;42.13;22.35;;;;;;;-0.87;100.00;100164.44;5111442;28;20056;-73
2022/01/09 01:10:02;;;;;;;38.17;22.15;;;;;;;-0.88;100.00;100149.34;5111281;28;20398;-73
2022/01/09 01:12:31;;;;;;;38.72;22.35;;;;;;;-0.98;100.00;100135.59;5093580;28;20382;-73
2022/01/09 01:14:59;;;;;;;38.75;22.27;;;;;;;-1.07;100.00;100126.94;5110382;28;20051;-73
2022/01/09 01:17:27;;;;;;;38.08;22.77;;;;;;;-1.14;100.00;100121.59;5111487;28;20055;-73
2022/01/09 01:19:55;;;;;;;35.85;22.42;;;;;;;-1.16;100.00;100110.25;5113838;28;20394;-73
2022/01/09 01:22:29;;;;;;;36.90;21.13;;;;;;;-1.18;100.00;100106.94;5114698;28;20056;-73
2022/01/09 01:24:57;;;;;;;42.97;21.98;;;;;;;-1.16;100.00;100095.97;5114319;28;20401;-73
2022/01/09 01:27:26;;;;;;;37.20;21.83;;;;;;;-1.12;100.00;100092.66;5113958;28;20059;-73
2022/01/09 01:29:54;;;;;;;36.70;20.73;;;;;;;-0.93;100.00;100084.69;5115004;28;20409;-73
2022/01/09 01:32:23;;;;;;;38.88;21.55;;;;;;;-0.84;100.00;100078.03;5115216;28;20043;-73
2022/01/09 01:34:52;;;;;;;35.20;19.75;;;;;;;-0.95;100.00;100078.72;5113553;28;20547;-73
2022/01/09 01:37:20;;;;;;;31.88;19.30;;;;;;;-1.05;100.00;100100.69;5114488;28;20051;-73
2022/01/09 01:39:48;;;;;;;41.33;21.20;;;;;;;-1.11;100.00;100078.19;5096233;28;20405;-73
2022/01/09 01:42:16;;;;;;;38.42;22.30;;;;;;;-1.11;100.00;100074.69;5114942;28;20044;-73
2022/01/09 01:44:47;;;;;;;40.58;21.33;;;;;;;-1.14;100.00;100070.56;5113809;28;20051;-73
2022/01/09 01:47:17;;;;;;;37.00;20.80;;;;;;;-1.23;100.00;100069.16;5096754;28;20418;-73
2022/01/09 01:49:45;;;;;;;36.08;20.20;;;;;;;-1.04;100.00;100055.84;5096575;28;20050;-73
2022/01/09 01:52:21;;;;;;;37.90;20.52;;;;;;;-0.99;100.00;100056.00;5113273;28;20063;-73
2022/01/09 01:54:49;;;;;;;33.42;20.33;;;;;;;-1.10;100.00;100044.94;5101079;28;20054;-73
2022/01/09 01:57:18;;;;;;;38.28;20.67;;;;;;;-1.12;100.00;100044.31;5096489;28;20056;-74
2022/01/09 01:59:46;;;;;;;39.00;20.85;;;;;;;-1.12;100.00;100054.25;5112228;28;20043;-73
2022/01/09 02:02:14;;;;;;;33.55;20.38;;;;;;;-1.32;100.00;100055.16;5114601;28;20039;-73
2022/01/09 02:04:42;;;;;;;33.67;19.95;;;;;;;-1.47;100.00;100062.66;5114011;28;20379;-73
2022/01/09 02:07:11;;;;;;;36.00;20.13;;;;;;;-1.60;100.00;100052.81;5100196;28;20052;-73
2022/01/09 02:09:39;;;;;;;33.85;19.83;;;;;;;-1.67;100.00;100048.28;5113763;28;20055;-73
2022/01/09 02:12:07;;;;;;;35.78;20.65;;;;;;;-1.69;100.00;100036.09;5111560;28;20051;-73
2022/01/09 02:14:36;;;;;;;38.45;21.60;;;;;;;-1.75;100.00;100035.13;5112954;28;20050;-73
2022/01/09 02:17:05;;;;;;;37.03;19.92;;;;;;;-1.78;100.00;100020.25;5113730;28;20047;-73
2022/01/09 02:19:33;;;;;;;36.92;20.75;;;;;;;-1.83;100.00;100008.50;5113424;28;20051;-73
2022/01/09 02:22:01;;;;;;;39.30;21.13;;;;;;;-1.69;100.00;100012.81;5113132;28;20043;-73
2022/01/09 02:24:29;;;;;;;38.30;21.15;;;;;;;-1.49;100.00;99995.78;5113999;28;20040;-73
2022/01/09 02:26:57;;;;;;;33.75;21.50;;;;;;;-1.51;100.00;99979.06;5113371;28;20048;-73
2022/01/09 02:29:25;;;;;;;38.47;21.75;;;;;;;-1.48;100.00;99975.94;5112963;28;20047;-73
2022/01/09 02:31:54;;;;;;;41.33;21.85;;;;;;;-1.58;100.00;99959.47;5113008;28;20044;-73
2022/01/09 02:34:22;;;;;;;36.78;21.35;;;;;;;-1.67;100.00;99946.31;5112878;28;20048;-73
2022/01/09 02:36:50;;;;;;;35.00;21.58;;;;;;;-1.59;100.00;99936.38;5113153;28;20044;-73
2022/01/09 02:39:19;;;;;;;41.13;21.63;;;;;;;-1.66;100.00;99921.13;5095160;28;20040;-73
2022/01/09 02:41:47;;;;;;;37.47;21.05;;;;;;;-1.72;100.00;99905.91;5128709;27;20040;-73
2022/01/09 02:44:15;;;;;;;38.90;20.20;;;;;;;-1.63;100.00;99907.31;5108562;28;20059;-73
2022/01/09 02:47:02;;;;;;;38.20;21.05;;;;;;;-1.61;100.00;99896.34;5092000;28;20036;-73
2022/01/09 02:49:32;;;;;;;32.15;20.02;;;;;;;-1.58;100.00;99884.34;5098412;28;20036;-73
2022/01/09 02:52:05;;;;;;;37.00;20.77;;;;;;;-1.57;100.00;99899.44;5103245;28;20387;-73
2022/01/09 02:57:19;;;;;;;36.42;19.50;;;;;;;-1.60;100.00;99892.63;5113119;28;20061;-73
2022/01/09 02:59:47;;;;;;;32.33;18.90;;;;;;;-1.62;100.00;99884.78;5111602;28;20043;-73
2022/01/09 03:02:20;;;;;;;27.83;17.05;;;;;;;-1.58;100.00;99877.13;5095088;28;20047;-73
2022/01/09 03:04:49;;;;;;;28.92;15.85;;;;;;;-1.40;100.00;99873.72;5112588;28;20413;-73
2022/01/09 03:07:17;;;;;;;22.70;13.40;;;;;;;-1.31;100.00;99862.69;5112697;28;20401;-73
2022/01/09 03:09:45;;;;;;;19.65;11.70;;;;;;;-1.18;98.05;99859.88;5112204;28;20047;-73
2022/01/09 03:12:13;;;;;;;21.38;11.48;;;;;;;-1.10;96.24;99854.25;5113150;28;20057;-73
2022/01/09 03:14:41;;;;;;;20.95;12.13;;;;;;;-1.06;95.67;99843.06;5113078;28;20052;-73
2022/01/09 03:17:09;;;;;;;18.08;10.57;;;;;;;-1.14;94.92;99847.69;5112329;28;20035;-73
2022/01/09 03:19:37;;;;;;;18.23;10.02;;;;;;;-1.18;94.31;99846.47;5112373;28;20047;-73
2022/01/09 03:22:05;;;;;;;16.92;9.75;;;;;;;-1.15;93.77;99827.25;5112506;28;20066;-73
2022/01/09 03:24:33;;;;;;;14.90;9.30;;;;;;;-1.17;94.26;99825.81;5108553;28;20083;-73
2022/01/09 03:27:02;;;;;;;12.10;8.20;;;;;;;-1.25;93.23;99806.28;5110950;28;20039;-72
2022/01/09 03:29:30;;;;;;;13.75;8.88;;;;;;;-1.26;94.51;99801.13;5108981;28;20048;-72
2022/01/09 03:31:58;;;;;;;16.45;8.70;;;;;;;-1.21;93.01;99793.22;5112396;28;20055;-72
2022/01/09 03:34:26;;;;;;;15.88;9.30;;;;;;;-1.22;93.43;99796.94;5112235;28;20047;-73
2022/01/09 03:36:53;;;;;;;15.75;8.57;;;;;;;-1.26;92.80;99795.75;5112667;28;20390;-73
2022/01/09 03:39:21;;;;;;;19.55;10.27;;;;;;;-1.31;93.46;99787.53;5112275;28;20044;-73
2022/01/09 03:41:49;;;;;;;16.98;9.68;;;;;;;-1.39;94.42;99794.00;5111469;28;20046;-73
2022/01/09 03:44:17;;;;;;;14.68;9.20;;;;;;;-1.51;95.57;99783.97;5112027;28;20054;-72
2022/01/09 03:46:45;;;;;;;16.77;9.85;;;;;;;-1.57;96.60;99784.84;5111366;28;20528;-73
2022/01/09 03:49:13;;;;;;;16.08;8.93;;;;;;;-1.64;96.92;99790.28;5112039;28;20406;-73
2022/01/09 03:51:44;;;;;;;15.65;9.75;;;;;;;-1.68;98.08;99793.59;5111783;28;20402;-72
2022/01/09 03:54:13;;;;;;;20.17;9.68;;;;;;;-1.70;97.57;99785.78;5110053;28;20075;-72
2022/01/09 03:56:40;;;;;;;16.15;10.50;;;;;;;-1.74;98.63;99781.06;5110736;28;20054;-72
2022/01/09 03:59:08;;;;;;;17.10;10.23;;;;;;;-1.69;98.88;99771.34;5107516;28;20044;-72
2022/01/09 04:01:36;;;;;;;21.20;10.85;;;;;;;-1.55;98.10;99773.91;5110801;28;20044;-72
2022/01/09 04:04:04;;;;;;;17.33;10.38;;;;;;;-1.56;99.47;99781.13;5105038;28;20044;-73
2022/01/09 04:06:33;;;;;;;20.58;12.18;;;;;;;-1.41;98.87;99788.03;5110903;28;20157;-72
2022/01/09 04:09:07;;;;;;;21.70;13.00;;;;;;;-1.48;98.95;99782.72;5111969;28;20052;-72
2022/01/09 04:11:38;;;;;;;26.33;14.23;;;;;;;-1.57;99.91;99784.03;5111869;28;20497;-73
2022/01/09 04:14:07;;;;;;;30.20;16.90;;;;;;;-1.68;100.00;99793.59;5112300;28;20040;-73
2022/01/09 04:16:34;;;;;;;35.40;18.95;;;;;;;-1.69;100.00;99787.44;5111476;28;20039;-72
2022/01/09 04:19:02;;;;;;;39.90;20.08;;;;;;;-1.67;100.00;99779.16;5078989;28;20074;-72
2022/01/09 04:21:30;;;;;;;35.63;17.98;;;;;;;-1.64;100.00;99758.09;5108259;28;20399;-73
2022/01/09 04:23:58;;;;;;;36.58;17.48;;;;;;;-1.32;100.00;99764.41;5107549;28;20051;-72
2022/01/09 04:26:26;;;;;;;37.17;18.33;;;;;;;-1.14;99.57;99756.38;5093856;28;20058;-72
2022/01/09 04:28:54;;;;;;;33.45;17.50;;;;;;;-1.06;97.88;99757.13;5110041;28;20502;-72
2022/01/09 04:31:22;;;;;;;29.63;17.67;;;;;;;-1.24;98.09;99761.44;5105739;28;20043;-72
2022/01/09 04:33:50;;;;;;;35.05;16.77;;;;;;;-1.15;98.88;99770.03;5063067;28;20043;-72
2022/01/09 04:36:18;;;;;;;29.63;16.90;;;;;;;-1.06;98.77;99765.19;5092157;28;20051;-72
2022/01/09 04:38:46;;;;;;;29.95;16.42;;;;;;;-1.18;98.23;99760.53;5104387;28;20054;-72
2022/01/09 04:41:14;;;;;;;30.30;16.17;;;;;;;-1.37;98.78;99762.41;5109905;28;20048;-72
2022/01/09 04:43:44;;;;;;;25.20;14.55;;;;;;;-1.36;99.80;99759.47;5108424;28;20050;-72
2022/01/09 04:46:19;;;;;;;26.55;14.23;;;;;;;-1.36;98.08;99762.16;5111207;28;20051;-72
2022/01/09 04:48:48;;;;;;;23.90;13.60;;;;;;;-1.37;98.02;99757.84;5111407;28;20383;-72
2022/01/09 04:51:16;;;;;;;26.70;14.07;;;;;;;-1.43;98.72;99769.44;5108758;28;20048;-72
2022/01/09 04:53:44;;;;;;;24.80;13.80;;;;;;;-1.32;98.72;99764.41;5087936;28;20040;-72
2022/01/09 04:56:12;;;;;;;22.55;13.27;;;;;;;-1.31;97.74;99760.69;5113695;28;20122;-72
2022/01/09 04:58:41;;;;;;;23.20;12.45;;;;;;;-1.42;97.32;99759.56;5106494;28;20073;-72
2022/01/09 05:01:08;;;;;;;20.75;11.38;;;;;;;-1.41;97.06;99755.81;5109389;28;20051;-72
2022/01/09 05:03:36;;;;;;;22.75;13.18;;;;;;;-1.37;96.95;99760.50;5100302;28;20051;-72
2022/01/09 05:06:05;;;;;;;19.83;11.75;;;;;;;-1.32;97.69;99767.91;5094873;28;20406;-72
2022/01/09 05:08:32;;;;;;;19.95;11.68;;;;;;;-1.28;97.68;99774.47;5095149;28;20043;-72
2022/01/09 05:11:00;;;;;;;21.75;12.40;;;;;;;-1.26;98.35;99774.25;5094701;28;20045;-72
2022/01/09 05:13:28;;;;;;;25.25;13.40;;;;;;;-1.26;98.06;99764.31;5094994;28;20051;-72
2022/01/09 05:15:56;;;;;;;22.55;12.80;;;;;;;-1.14;97.53;99766.28;5094715;28;20055;-72
2022/01/09 05:18:24;;;;;;;20.50;12.95;;;;;;;-1.15;97.24;99751.22;5103454;28;20533;-72
2022/01/09 05:20:52;;;;;;;23.67;13.38;;;;;;;-1.13;96.25;99752.66;5099440;28;20048;-72
2022/01/09 05:23:21;;;;;;;23.95;13.18;;;;;;;-0.97;96.23;99758.47;5103978;28;20043;-72
2022/01/09 05:25:49;;;;;;;23.55;13.30;;;;;;;-0.59;94.19;99767.34;5094048;28;20044;-72
2022/01/09 05:28:17;;;;;;;23.27;13.00;;;;;;;-0.42;95.13;99756.78;5098316;28;20506;-72
2022/01/09 05:30:45;;;;;;;24.90;13.77;;;;;;;-0.45;94.64;99770.66;5094779;28;20044;-72
2022/01/09 05:33:13;;;;;;;26.52;14.07;;;;;;;-0.53;95.42;99771.00;5095513;28;20094;-72
2022/01/09 05:35:41;;;;;;;32.10;13.48;;;;;;;-0.45;95.99;99778.72;5094510;28;20051;-72
2022/01/09 05:38:09;;;;;;;24.05;13.68;;;;;;;-0.62;95.32;99779.38;5102582;28;20050;-72
2022/01/09 05:40:37;;;;;;;22.27;13.80;;;;;;;-0.86;95.91;99773.84;5098148;28;20051;-72
2022/01/09 05:43:05;;;;;;;24.80;12.40;;;;;;;-1.09;97.17;99761.91;5093949;28;20383;-72
2022/01/09 05:45:33;;;;;;;25.40;12.55;;;;;;;-1.21;98.48;99777.09;5093530;28;20039;-72
2022/01/09 05:48:02;;;;;;;21.45;11.27;;;;;;;-1.10;98.32;99772.88;5105936;28;20058;-73
2022/01/09 05:50:30;;;;;;;18.83;11.50;;;;;;;-1.02;97.27;99790.56;5103367;28;20051;-72
2022/01/09 05:52:58;;;;;;;19.63;11.63;;;;;;;-1.03;98.27;99791.59;5100044;28;20501;-72
2022/01/09 05:55:26;;;;;;;19.30;11.88;;;;;;;-1.05;98.69;99783.75;5104004;28;20413;-72
2022/01/09 05:57:54;;;;;;;19.85;11.85;;;;;;;-0.99;97.98;99790.94;5112870;28;20039;-72
2022/01/09 06:00:23;;;;;;;21.45;12.57;;;;;;;-0.88;97.84;99802.00;5101410;28;20055;-72
2022/01/09 06:02:51;;;;;;;18.48;11.98;;;;;;;-1.00;98.06;99794.66;5110018;28;20055;-72
2022/01/09 06:05:19;;;;;;;19.00;12.07;;;;;;;-0.92;98.63;99793.56;5095497;28;20066;-72
2022/01/09 06:07:47;;;;;;;21.45;12.65;;;;;;;-1.00;98.03;99796.50;5113895;28;20242;-72
2022/01/09 06:10:15;;;;;;;17.35;11.25;;;;;;;-0.99;98.21;99811.59;5113195;28;20043;-72
2022/01/09 06:12:43;;;;;;;20.75;12.05;;;;;;;-1.00;98.30;99801.88;5095609;28;20090;-72
2022/01/09 06:15:11;;;;;;;20.58;11.80;;;;;;;-1.03;97.60;99800.47;5113487;28;20040;-72
2022/01/09 06:17:41;;;;;;;21.08;11.95;;;;;;;-0.99;97.10;99806.22;5113442;28;20047;-72
2022/01/09 06:20:11;;;;;;;19.75;11.32;;;;;;;-0.97;96.77;99801.47;5095806;28;20051;-72
2022/01/09 06:22:39;;;;;;;20.35;11.32;;;;;;;-0.90;97.03;99812.13;5095852;28;20034;-72
2022/01/09 06:25:08;;;;;;;21.88;11.77;;;;;;;-0.80;97.35;99811.63;5113694;28;20067;-72
2022/01/09 06:27:36;;;;;;;19.05;11.52;;;;;;;-0.74;96.60;99813.41;5096028;28;20047;-72
2022/01/09 06:30:06;;;;;;;23.10;12.48;;;;;;;-0.69;96.17;99808.16;5095337;28;20055;-72
2022/01/09 06:32:35;;;;;;;23.92;12.77;;;;;;;-0.65;95.22;99806.69;5109974;28;20044;-72
2022/01/09 06:35:04;;;;;;;23.13;13.23;;;;;;;-0.68;95.42;99807.94;5110038;28;20047;-72
2022/01/09 06:37:33;;;;;;;25.75;12.65;;;;;;;-0.68;96.44;99807.16;5112622;28;20052;-71
2022/01/09 06:40:01;;;;;;;28.55;14.55;;;;;;;-0.68;96.00;99801.78;5118407;27;20043;-73
2022/01/09 06:42:29;;;;;;;23.52;13.30;;;;;;;-0.73;95.68;99778.22;5113527;28;20521;-73
2022/01/09 06:44:57;;;;;;;26.65;11.95;;;;;;;-0.64;94.79;99776.06;5112064;28;20368;-73
2022/01/09 06:47:36;;;;;;;22.85;12.75;;;;;;;-0.46;93.81;99758.28;5112311;28;20044;-75
2022/01/09 06:50:06;;;;;;;23.38;12.02;;;;;;;-0.16;89.23;99752.91;5111244;28;20058;-74
2022/01/09 06:52:33;;;;;;;18.67;10.23;;;;;;;0.08;86.44;99768.28;5110323;28;20047;-73
2022/01/09 06:55:02;;;;;;;23.38;11.90;;;;;;;0.25;86.70;99758.50;5107229;28;20055;-74
2022/01/09 06:57:31;;;;;;;22.60;11.82;;;;;;;0.18;87.58;99757.78;5088546;28;20386;-73
2022/01/09 07:00:02;;;;;;;19.48;11.50;;;;;;;0.16;87.66;99753.69;5107662;28;20039;-73
2022/01/09 07:02:31;;;;;;;20.70;10.50;;;;;;;0.30;87.54;99747.06;5104086;28;20048;-74
2022/01/09 07:05:01;;;;;;;17.35;11.23;;;;;;;0.20;88.85;99760.25;5098850;28;20047;-74
2022/01/09 07:07:29;;;;;;;20.25;11.68;;;;;;;0.15;89.62;99762.81;5105207;28;20557;-73
2022/01/09 07:09:58;;;;;;;20.67;12.10;;;;;;;0.11;88.96;99763.25;5097657;28;20047;-74
2022/01/09 07:12:26;;;;;;;19.85;11.48;;;;;;;0.08;89.65;99757.53;5104091;28;20044;-73
2022/01/09 07:14:54;;;;;;;24.20;12.48;;;;;;;0.02;88.38;99750.38;5104705;28;20409;-72
2022/01/09 07:17:21;;;;;;;21.38;11.50;;;;;;;0.04;88.02;99748.28;5091629;28;20055;-73
2022/01/09 07:19:50;;;;;;;18.60;11.07;;;;;;;0.04;88.37;99740.22;5077458;28;20375;-72
2022/01/09 07:22:17;;;;;;;20.50;11.45;;;;;;;0.13;87.71;99736.13;5092130;28;20449;-73
2022/01/09 07:24:45;;;;;;;17.50;10.60;;;;;;;0.33;86.14;99740.34;5092518;28;20497;-73
2022/01/09 07:27:13;;;;;;;18.15;11.48;;;;;;;0.36;87.17;99742.59;5092999;28;20032;-73
2022/01/09 07:29:41;;;;;;;20.60;12.15;;;;;;;0.47;88.03;99741.78;5103613;28;20043;-72
2022/01/09 07:32:09;;;;;;;20.80;11.48;;;;;;;0.62;91.89;99748.56;5105509;28;20040;-79
2022/01/09 07:34:37;;;;;;;23.45;12.93;;;;;;;0.96;91.71;99746.09;5067751;28;20055;-78
2022/01/09 07:37:06;;;;;;;26.90;12.40;;;;;;;0.98;87.56;99743.19;5070959;28;20040;-79
2022/01/09 07:39:34;;;;;;;26.83;12.45;;;;;;;0.94;86.83;99734.75;5093836;28;20547;-78
2022/01/09 07:42:02;;;;;;;22.50;12.23;;;;;;;0.86;84.57;99738.63;5091824;28;20473;-73
2022/01/09 07:44:31;;;;;;;24.08;11.43;;;;;;;0.74;85.11;99735.91;5104935;28;20043;-73
2022/01/09 07:46:59;;;;;;;16.60;10.57;;;;;;;0.58;87.22;99742.84;5102941;28;20414;-73
2022/01/09 07:49:27;;;;;;;21.02;11.40;;;;;;;0.45;86.26;99727.75;5105673;28;20051;-73
2022/01/09 07:51:54;;;;;;;20.88;10.60;;;;;;;0.41;86.04;99734.66;5103037;28;20039;-73
2022/01/09 07:54:22;;;;;;;14.32;9.27;;;;;;;0.68;85.27;99730.69;5104000;28;20044;-72
2022/01/09 07:56:50;;;;;;;17.15;9.18;;;;;;;0.81;84.41;99722.34;5111761;28;20043;-73
2022/01/09 07:59:18;;;;;;;18.77;8.82;;;;;;;0.56;84.64;99736.03;5111630;28;20047;-73
2022/01/09 08:01:50;;;;;;;16.83;8.35;;;;;;;0.42;84.51;99725.53;5109191;28;20044;-73
2022/01/09 08:04:18;;;;;;;13.77;8.52;;;;;;;0.42;83.46;99722.00;5111139;28;20043;-72
2022/01/09 08:06:46;;;;;;;12.93;7.00;;;;;;;0.45;82.66;99714.28;5111826;28;20039;-72
2022/01/09 08:09:14;;;;;;;12.48;7.22;;;;;;;0.46;83.22;99721.31;5092584;28;20524;-72
2022/01/09 08:11:42;;;;;;;10.82;6.65;;;;;;;0.48;82.68;99716.50;5111759;28;20044;-73
2022/01/09 08:14:10;;;;;;;18.77;8.52;;;;;;;0.65;83.32;99707.72;5093689;28;20052;-73
2022/01/09 08:16:38;;;;;;;17.75;8.70;;;;;;;0.67;81.81;99702.91;5111042;28;20054;-72
2022/01/09 08:19:06;;;;;;;13.70;8.10;;;;;;;0.78;83.01;99709.34;5092951;28;20047;-73
2022/01/09 08:21:34;;;;;;;15.82;8.60;;;;;;;0.74;82.69;99706.28;5112194;28;20478;-72
2022/01/09 08:24:02;;;;;;;16.02;7.93;;;;;;;0.86;84.80;99705.47;5111315;28;20047;-72
2022/01/09 08:26:30;;;;;;;16.20;8.60;;;;;;;1.07;83.12;99718.31;5111161;28;20051;-74
2022/01/09 08:28:58;;;;;;;18.65;9.50;;;;;;;0.99;83.09;99716.00;5113037;28;20047;-73
2022/01/09 08:31:26;;;;;;;18.65;10.02;;;;;;;1.02;80.72;99710.13;5115338;28;20052;-73
2022/01/09 08:33:55;;;;;;;15.80;8.38;;;;;;;1.06;81.07;99718.53;5115238;28;20398;-73
2022/01/09 08:36:23;;;;;;;18.35;8.82;;;;;;;1.22;81.43;99738.53;5115618;28;20040;-73
2022/01/09 08:38:51;;;;;;;13.95;7.45;;;;;;;1.19;81.31;99739.03;5115259;28;20039;-74
2022/01/09 08:41:19;;;;;;;10.20;6.95;;;;;;;1.12;80.85;99751.81;5115139;28;20055;-74
2022/01/09 08:43:47;;;;;;;18.13;9.00;;;;;;;1.00;82.60;99746.44;5115795;28;20043;-73
2022/01/09 08:46:15;;;;;;;18.13;8.10;;;;;;;0.90;82.23;99761.34;5098264;28;20055;-73
2022/01/09 08:48:43;;;;;;;13.23;8.02;;;;;;;0.80;83.58;99761.91;5097607;28;20509;-74
2022/01/09 08:51:11;;;;;;;14.77;8.80;;;;;;;0.90;82.73;99774.00;5115165;28;20048;-74
2022/01/09 08:53:40;;;;;;;14.05;8.02;;;;;;;0.95;83.40;99768.72;5115698;28;20398;-74
2022/01/09 08:56:08;;;;;;;25.92;9.27;;;;;;;0.97;83.51;99758.50;5079543;28;20067;-74
2022/01/09 08:58:37;;;;;;;16.60;8.57;;;;;;;0.97;82.40;99761.19;5060815;28;20399;-74
2022/01/09 09:01:05;;;;;;;17.42;9.73;;;;;;;1.11;80.85;99761.78;5075499;28;20048;-76
2022/01/09 09:03:34;;;;;;;15.95;9.93;;;;;;;1.17;80.47;99760.03;5074143;28;20051;-74
2022/01/09 09:06:02;;;;;;;15.77;8.88;;;;;;;1.32;80.72;99763.00;5075218;28;20056;-74
2022/01/09 09:08:30;;;;;;;14.95;9.20;;;;;;;1.47;78.99;99757.09;5074348;28;20044;-74
2022/01/09 09:10:58;;;;;;;20.55;9.45;;;;;;;1.60;76.63;99756.03;5075205;28;20049;-74
2022/01/09 09:13:26;;;;;;;13.65;8.52;;;;;;;1.59;77.56;99762.47;5074855;28;20059;-74
2022/01/09 09:15:54;;;;;;;17.75;9.43;;;;;;;1.74;77.04;99778.13;5074605;28;20037;-75
2022/01/09 09:18:22;;;;;;;17.05;9.73;;;;;;;1.81;77.42;99772.56;5072892;28;20059;-74
2022/01/09 09:20:50;;;;;;;17.38;9.45;;;;;;;1.83;76.20;99775.03;5075255;28;20048;-74
2022/01/09 09:23:18;;;;;;;16.73;9.02;;;;;;;1.94;74.84;99768.78;5073329;28;20495;-74
2022/01/09 09:25:47;;;;;;;17.10;10.35;;;;;;;1.96;76.05;99779.34;5070199;28;20045;-75
2022/01/09 09:28:16;;;;;;;16.67;9.02;;;;;;;2.10;79.32;99777.94;5060975;28;20049;-79
2022/01/09 09:30:44;;;;;;;14.40;8.75;;;;;;;2.24;79.96;99772.22;5070308;28;20045;-80
2022/01/09 09:33:12;;;;;;;14.55;9.30;;;;;;;2.20;78.35;99763.00;5094432;28;20051;-80
2022/01/09 09:35:40;;;;;;;15.25;9.50;;;;;;;2.28;79.44;99765.28;5057797;28;20041;-80
2022/01/09 09:38:08;;;;;;;15.77;10.30;;;;;;;2.26;78.46;99765.53;5054407;28;20048;-79
2022/01/09 09:40:37;;;;;;;14.25;9.63;;;;;;;2.28;78.55;99763.41;5055916;28;20041;-79
2022/01/09 09:43:04;;;;;;;16.25;9.60;;;;;;;2.33;79.12;99765.38;5069004;28;20056;-79
2022/01/09 09:45:32;;;;;;;14.98;10.30;;;;;;;2.45;77.60;99769.88;5059995;28;20385;-79
2022/01/09 09:48:01;;;;;;;19.08;10.68;;;;;;;2.39;77.00;99766.25;5063920;28;20057;-79
2022/01/09 09:50:29;;;;;;;21.20;12.18;;;;;;;2.38;76.77;99778.13;5054246;28;20048;-79
2022/01/09 09:52:58;;;;;;;21.92;13.32;;;;;;;2.42;77.48;99769.31;5053898;28;20041;-79
2022/01/09 09:55:26;;;;;;;25.00;13.25;;;;;;;2.36;78.85;99769.47;5076006;28;20067;-79
2022/01/09 09:57:54;;;;;;;24.27;13.75;;;;;;;2.31;77.29;99767.50;5096414;28;20040;-79
2022/01/09 10:00:22;;;;;;;19.83;13.30;;;;;;;2.26;77.89;99780.94;5100430;28;20043;-79
2022/01/09 10:02:55;;;;;;;18.63;12.82;;;;;;;2.35;78.75;99778.66;5114431;28;20040;-80
2022/01/09 10:05:26;;;;;;;25.00;14.30;;;;;;;2.31;78.74;99767.50;5114518;28;20043;-80
2022/01/09 10:08:05;;;;;;;18.75;12.43;;;;;;;2.30;79.16;99763.19;5096429;28;20039;-79
2022/01/09 10:10:34;;;;;;;21.27;13.43;;;;;;;2.41;79.94;99772.25;5114387;28;20039;-79
2022/01/09 10:13:11;;;;;;;24.05;13.60;;;;;;;2.46;81.11;99780.44;5114365;28;20401;-79
2022/01/09 10:15:58;;;;;;;21.27;13.60;;;;;;;2.41;80.48;99773.06;5114179;28;20039;-79
2022/01/09 10:18:42;;;;;;;31.77;14.77;;;;;;;2.45;81.13;99776.13;5114163;28;20409;-79
2022/01/09 10:21:19;;;;;;;26.58;14.70;;;;;;;2.44;81.77;99781.75;5114237;28;20059;-79
2022/01/09 10:23:58;;;;;;;29.95;16.83;;;;;;;2.39;82.92;99779.78;5110892;28;20055;-80
2022/01/09 10:26:27;;;;;;;27.15;16.48;;;;;;;2.39;83.69;99772.50;5112385;28;20051;-80
2022/01/09 10:28:56;;;;;;;31.77;17.75;;;;;;;2.40;84.47;99778.72;5113449;28;20397;-79
2022/01/09 10:31:26;;;;;;;30.00;17.70;;;;;;;2.39;84.91;99783.31;5113387;28;20060;-80
2022/01/09 10:33:59;;;;;;;31.80;17.67;;;;;;;2.45;84.55;99775.28;5113120;28;20039;-79
2022/01/09 10:36:38;;;;;;;30.05;18.77;;;;;;;2.44;84.96;99779.84;5113448;28;20047;-80
2022/01/09 10:39:13;;;;;;;30.83;18.52;;;;;;;2.48;85.19;99783.72;5112484;28;20039;-80
2022/01/09 10:41:56;;;;;;;33.33;19.65;;;;;;;2.50;86.08;99784.28;5112816;28;20548;-81
2022/01/09 10:44:34;;;;;;;33.15;20.02;;;;;;;2.54;85.98;99787.34;5113370;28;20044;-80
2022/01/09 10:47:02;;;;;;;32.88;20.52;;;;;;;2.52;86.58;99784.88;5113451;28;20058;-82
2022/01/09 10:49:41;;;;;;;38.90;21.40;;;;;;;2.62;86.72;99783.38;5095027;28;20051;-80
2022/01/09 10:52:26;;;;;;;35.17;21.52;;;;;;;2.63;87.13;99785.84;5111197;28;20396;-81
2022/01/09 10:54:57;;;;;;;34.75;21.20;;;;;;;2.44;87.65;99785.25;5099111;28;20039;-79
2022/01/09 10:57:29;;;;;;;35.42;20.92;;;;;;;2.40;88.57;99782.22;5108896;28;20051;-81
2022/01/09 11:00:05;;;;;;;38.58;22.35;;;;;;;2.30;89.00;99782.09;5101128;28;20052;-79
2022/01/09 11:02:33;;;;;;;38.47;22.95;;;;;;;2.38;89.10;99784.38;5072975;28;20044;-81
2022/01/09 11:05:02;;;;;;;33.15;22.10;;;;;;;2.47;88.54;99792.06;5089135;28;20394;-80
2022/01/09 11:07:33;;;;;;;38.63;22.30;;;;;;;2.48;88.59;99790.97;5090756;28;20051;-81
2022/01/09 11:10:01;;;;;;;40.70;23.30;;;;;;;2.44;88.77;99785.25;5055289;28;20816;-81
2022/01/09 11:12:36;;;;;;;33.80;21.50;;;;;;;2.44;88.87;99781.75;5106170;28;20047;-80
2022/01/09 11:15:05;;;;;;;39.80;23.02;;;;;;;2.47;88.58;99789.34;5101105;28;20047;-81
2022/01/09 11:17:34;;;;;;;37.85;24.00;;;;;;;2.57;89.13;99799.50;5074530;28;20794;-82
2022/01/09 11:20:03;;;;;;;45.80;25.70;;;;;;;2.42;90.07;99788.22;5087341;28;20047;-85
2022/01/09 11:22:31;;;;;;;42.25;25.63;;;;;;;2.35;90.83;99787.53;5059045;28;20040;-79
2022/01/09 11:25:14;;;;;;;46.28;25.08;;;;;;;2.45;90.53;99795.03;5079861;28;20054;-81
2022/01/09 11:28:12;;;;;;;47.00;26.73;;;;;;;2.33;91.32;99795.09;5094533;28;20052;-81